Weather History for West Point, VA

Change the Weather History Date:

Monday, January 27, 2014

  Actual Average (KRIC) Record (KRIC)
Temperature  
Mean Temperature 47 °F 38 °F  
Max Temperature 65 °F 48 °F 74 °F (1974)
Min Temperature 29 °F 29 °F -6 °F (1940)
Degree Days  
Heating Degree Days 18 27  
Month to date heating degree days 729  
Since 1 July heating degree days 2148  
Cooling Degree Days 0 0  
Month to date cooling degree days 0  
Year to date cooling degree days 0  
Moisture  
Dew Point 21 °F    
Average Humidity 41    
Maximum Humidity 59    
Minimum Humidity 23    
Precipitation  
Precipitation 0.00 in 0.10 in 1.32 in (1976)
Month to date precipitation 2.64  
Year to date precipitation 2.64  
Snow  
Snow 0.00 in 0.20 in 7.70 in (1922)
Month to date snowfall 3.3  
Since 1 July snowfall 5.6  
Snow Depth -    
Sea Level Pressure  
Sea Level Pressure 29.87 in    
Wind  
Wind Speed 6 mph (SSW)    
Max Wind Speed 15 mph    
Max Gust Speed 21 mph    
Visibility 10 miles    
Events      
T = Trace of Precipitation, MM = Missing Value Source: NWS Daily Summary

Daily Weather History Graph

Daily Weather History Graph

Search for Another Location

Airport:

Trip Planner

Search our weather history database for the weather conditions in past years. The results will help you decide how hot, cold, wet, or windy it might be!

Date:

Astronomy

Jan. 27, 2014 Rise Set
Actual Time 7:14 AM EST 5:25 PM EST
Civil Twilight 6:46 AM EST 5:53 PM EST
Nautical Twilight 6:15 AM EST 6:25 PM EST
Astronomical Twilight 5:44 AM EST 6:55 PM EST
Moon 3:52 AM EST (1/27) 2:10 PM EST (1/27)
Length of Visible Light 11h 06m
Length of Day
10h 11m
Waning Crescent, 15% of the Moon is Illuminated
Jan 27
Waning Crescent
Jan 30
New
Feb 6
First Quarter
Feb 14
Full
Feb 22
Last Quarter

Hourly Weather History & Observations

Time (EST) Temp. Windchill Dew Point Humidity Pressure Visibility Wind Dir Wind Speed Gust Speed Precip Events Conditions
12:15 AM 44.6 °F 41.4 °F 21.6 °F 40% 29.84 in 10.0 mi South 5.8 mph - N/A   Clear
12:35 AM 44.6 °F 43.1 °F 21.6 °F 40% 29.83 in 10.0 mi South 3.5 mph - N/A   Clear
12:55 AM 42.6 °F 39.9 °F 22.3 °F 45% 29.83 in 10.0 mi SE 4.6 mph - N/A   Clear
1:15 AM 41.4 °F 38.4 °F 23.4 °F 49% 29.82 in 10.0 mi SE 4.6 mph - N/A   Clear
1:35 AM 40.8 °F 37.8 °F 23.7 °F 51% 29.81 in 10.0 mi SE 4.6 mph - N/A   Clear
1:55 AM 40.6 °F 38.6 °F 24.1 °F 52% 29.81 in 10.0 mi SE 3.5 mph - N/A   Clear
2:15 AM 41.0 °F 39.0 °F 25.0 °F 53% 29.81 in 10.0 mi ESE 3.5 mph - N/A   Clear
2:35 AM 42.4 °F 39.6 °F 24.8 °F 50% 29.81 in 10.0 mi SSE 4.6 mph - N/A   Clear
2:55 AM 43.5 °F 40.9 °F 25.0 °F 48% 29.81 in 10.0 mi South 4.6 mph - N/A   Clear
3:15 AM 43.7 °F 41.1 °F 25.0 °F 48% 29.81 in 10.0 mi SE 4.6 mph - N/A   Clear
3:35 AM 43.2 °F 39.7 °F 25.9 °F 51% 29.80 in 10.0 mi SSE 5.8 mph - N/A   Clear
3:55 AM 42.8 °F 39.3 °F 26.6 °F 53% 29.80 in 10.0 mi SSE 5.8 mph - N/A   Clear
4:15 AM 43.0 °F 41.3 °F 26.6 °F 52% 29.79 in 10.0 mi SSE 3.5 mph - N/A   Clear
4:35 AM 42.8 °F 40.1 °F 27.0 °F 54% 29.79 in 10.0 mi SSE 4.6 mph - N/A   Clear
4:55 AM 42.4 °F 38.8 °F 27.1 °F 55% 29.79 in 10.0 mi SSE 5.8 mph - N/A   Clear
5:15 AM 42.4 °F 39.6 °F 27.3 °F 55% 29.79 in 10.0 mi SSE 4.6 mph - N/A   Clear
5:35 AM 42.1 °F 40.2 °F 27.5 °F 56% 29.79 in 10.0 mi SSE 3.5 mph - N/A   Clear
5:55 AM 41.0 °F 38.0 °F 27.5 °F 59% 29.78 in 10.0 mi SSE 4.6 mph - N/A   Clear
6:15 AM 42.6 °F 39.9 °F 28.0 °F 56% 29.78 in 10.0 mi SSE 4.6 mph - N/A   Scattered Clouds
6:35 AM 42.3 °F 40.5 °F 28.0 °F 57% 29.78 in 10.0 mi South 3.5 mph - N/A   Overcast
6:55 AM 43.2 °F 41.5 °F 28.2 °F 56% 29.79 in 10.0 mi SSE 3.5 mph - N/A   Overcast
7:15 AM 43.0 °F 41.3 °F 28.2 °F 56% 29.79 in 10.0 mi SE 3.5 mph - N/A   Mostly Cloudy
7:35 AM 42.8 °F 41.1 °F 28.4 °F 57% 29.79 in 10.0 mi SSE 3.5 mph - N/A   Mostly Cloudy
7:55 AM 43.3 °F 41.7 °F 28.4 °F 56% 29.78 in 10.0 mi SE 3.5 mph - N/A   Scattered Clouds
8:15 AM 43.2 °F 41.5 °F 28.6 °F 56% 29.79 in 10.0 mi SSE 3.5 mph - N/A   Clear
8:35 AM 45.9 °F - 29.3 °F 52% 29.79 in 10.0 mi Calm Calm - N/A   Clear
8:55 AM 47.3 °F - 28.8 °F 49% 29.79 in 10.0 mi South 4.6 mph - N/A   Clear
9:15 AM 47.7 °F - 28.8 °F 48% 29.79 in 10.0 mi SSW 4.6 mph - N/A   Clear
9:35 AM 47.7 °F - 28.9 °F 48% 29.79 in 10.0 mi SSW 5.8 mph - N/A   Clear
9:55 AM 48.4 °F - 29.1 °F 47% 29.79 in 10.0 mi SSW 4.6 mph - N/A   Clear
10:15 AM 49.3 °F - 29.5 °F 46% 29.79 in 10.0 mi SSW 4.6 mph - N/A   Clear
10:35 AM 50.9 °F - 29.1 °F 43% 29.79 in 10.0 mi SSW 6.9 mph - N/A   Clear
10:55 AM 51.3 °F - 29.1 °F 43% 29.79 in 10.0 mi SSW 6.9 mph - N/A   Clear
11:15 AM 54.0 °F - 28.9 °F 38% 29.78 in 10.0 mi SSW 11.5 mph - N/A   Scattered Clouds
11:35 AM 54.9 °F - 29.3 °F 38% 29.78 in 10.0 mi SW 9.2 mph - N/A   Scattered Clouds
11:55 AM 55.9 °F - 29.5 °F 36% 29.78 in 10.0 mi SW 9.2 mph - N/A   Clear
12:15 PM 56.7 °F - 30.4 °F 37% 29.77 in 10.0 mi SW 9.2 mph - N/A   Clear
12:35 PM 58.5 °F - 29.8 °F 34% 29.76 in 10.0 mi SSW 8.1 mph - N/A   Scattered Clouds
12:55 PM 59.9 °F - 30.2 °F 33% 29.75 in 10.0 mi SW 10.4 mph - N/A   Scattered Clouds
1:15 PM 61.3 °F - 30.4 °F 31% 29.75 in 10.0 mi SW 8.1 mph - N/A   Scattered Clouds
1:35 PM 61.2 °F - 29.7 °F 30% 29.75 in 10.0 mi WSW 11.5 mph - N/A   Overcast
1:55 PM 62.6 °F - 28.4 °F 27% 29.74 in 10.0 mi WSW 10.4 mph - N/A   Mostly Cloudy
2:15 PM 64.2 °F - 28.8 °F 26% 29.74 in 10.0 mi WSW 6.9 mph - N/A   Scattered Clouds
2:35 PM 64.9 °F - 28.8 °F 26% 29.75 in 10.0 mi West 6.9 mph - N/A   Clear
2:55 PM 63.7 °F - 28.4 °F 26% 29.75 in 10.0 mi West 9.2 mph - N/A   Clear
3:15 PM 62.8 °F - 28.8 °F 28% 29.76 in 10.0 mi West 5.8 mph - N/A   Scattered Clouds
3:35 PM 55.6 °F - 27.5 °F 34% 29.79 in 10.0 mi North 11.5 mph 20.7 mph N/A   Mostly Cloudy
3:55 PM 50.0 °F - 27.1 °F 41% 29.81 in 10.0 mi North 15.0 mph 19.6 mph N/A   Overcast
4:15 PM 48.2 °F - 25.7 °F 42% 29.84 in 10.0 mi North 12.7 mph 19.6 mph N/A   Overcast
4:35 PM 47.3 °F - 24.1 °F 40% 29.87 in 10.0 mi North 8.1 mph 18.4 mph N/A   Overcast
4:55 PM 45.9 °F 41.2 °F 23.4 °F 41% 29.89 in 10.0 mi North 9.2 mph 17.3 mph N/A   Overcast
5:15 PM 43.9 °F 37.2 °F 20.7 °F 40% 29.91 in 10.0 mi North 13.8 mph 20.7 mph N/A   Overcast
5:35 PM 42.4 °F 36.1 °F 18.1 °F 38% 29.94 in 10.0 mi NNW 11.5 mph 20.7 mph N/A   Overcast
5:55 PM 40.8 °F 32.9 °F 14.0 °F 34% 29.95 in 10.0 mi North 15.0 mph 18.4 mph N/A   Overcast
6:15 PM 39.4 °F 34.5 °F 14.0 °F 36% 29.97 in 10.0 mi North 6.9 mph 19.6 mph N/A   Mostly Cloudy
6:35 PM 37.8 °F 32.5 °F 10.6 °F 33% 29.99 in 10.0 mi North 6.9 mph 16.1 mph N/A   Clear
6:55 PM 36.5 °F 29.7 °F 7.7 °F 30% 30.00 in 10.0 mi North 9.2 mph - N/A   Clear
7:15 PM 35.2 °F 28.8 °F 5.4 °F 29% 30.02 in 10.0 mi NNW 8.1 mph - N/A   Clear
7:35 PM 34.7 °F 27.5 °F 5.5 °F 29% 30.03 in 10.0 mi North 9.2 mph - N/A   Clear
7:55 PM 33.8 °F 25.8 °F 2.3 °F 26% 30.04 in 10.0 mi North 10.4 mph 16.1 mph N/A   Clear
8:15 PM 33.3 °F 25.1 °F -0.9 °F 23% 30.06 in 10.0 mi North 10.4 mph 16.1 mph N/A   Clear
8:35 PM 32.5 °F 25.5 °F -0.9 °F 24% 30.07 in 10.0 mi North 8.1 mph 16.1 mph N/A   Clear
8:55 PM 32.0 °F 25.6 °F -0.4 °F 25% 30.08 in 10.0 mi North 6.9 mph - N/A   Clear
9:15 PM 32.0 °F 25.6 °F -0.2 °F 25% 30.10 in 10.0 mi North 6.9 mph 20.7 mph N/A   Clear
9:35 PM 32.0 °F 27.5 °F 1.0 °F 27% 30.11 in 10.0 mi NNW 4.6 mph - N/A   Clear
9:55 PM 31.8 °F 27.3 °F 2.5 °F 29% 30.12 in 10.0 mi North 4.6 mph - N/A   Clear
10:15 PM 31.6 °F 25.1 °F 2.5 °F 29% 30.12 in 10.0 mi North 6.9 mph - N/A   Clear
10:35 PM 31.1 °F 25.4 °F 3.4 °F 31% 30.13 in 10.0 mi North 5.8 mph - N/A   Clear
10:55 PM 31.1 °F 25.4 °F 3.7 °F 31% 30.15 in 10.0 mi NNW 5.8 mph - N/A   Clear
11:15 PM 30.7 °F 23.3 °F 3.6 °F 32% 30.15 in 10.0 mi North 8.1 mph - N/A   Clear
11:35 PM 30.2 °F 26.7 °F 3.0 °F 32% 30.17 in 10.0 mi North 3.5 mph - N/A   Clear
11:55 PM 29.8 °F 24.9 °F 3.6 °F 33% 30.17 in 10.0 mi North 4.6 mph - N/A   Clear